Terminal Aerodrome Forecast
Issued by NWS Tuscon, AZ

Home | Current Version | Previous Version | Text Only | Print | Product List | Glossary On
Versions: 1 2 3 4 5 6 7 8 9 10 11 12
000
FTUS45 KTWC 020531
TAFDUG
TAF
KDUG 020531Z 0206/0306 VRB05KT P6SM SCT070 BKN120 OVC200
     FM021200 VRB04KT P6SM SCT120 BKN200
     FM021800 26008KT P6SM SCT070
     FM022100 30008KT P6SM VCTS SCT070CB BKN140
     FM030100 34006KT P6SM VCSH SCT080 BKN120=

USA.gov is the U.S. government's official web portal to all federal, state and local government web resources and services.